Teasdale, Utah
Current Conditions -  °F | °C
As of 11:53 PM on Friday 28 Nov 2014 (Local Time) from KBCE Reporting Station
Clear Clear  
Wind Chill: 35°   Ceiling: Unl
Heat Index: 41°   Visibility: 10mi
Dew Point: 12°   Wind: 10mph
Humidity: 31%   Direction: 250°WSW
Pressure: 30.06"   Gusts: NA
Location:  38.29°N, 111.48°W
Report Text: KBCE 290653Z AUTO 25009KT 10SM CLR 05/M11 A3006 RMK AO2 SLP102 T00501111 401441111
Loading
Personal Weather Stations






























Interactive Weather Map New forecast layout! Learn more

10-Day Weather Forecast

Advertisements
Track Severe Weather on mobile